createdAt,value
2024-03-24T00:00:49.870Z,94558.00
2024-03-24T00:01:49.916Z,94556.00
2024-03-24T00:02:49.957Z,94555.00
2024-03-24T00:03:49.982Z,94555.00
2024-03-24T00:04:50.042Z,94556.00
2024-03-24T00:05:50.078Z,94556.00
2024-03-24T00:06:50.111Z,94555.00
2024-03-24T00:07:50.158Z,94554.00
2024-03-24T00:08:50.179Z,94553.00
2024-03-24T00:09:50.208Z,94556.00
2024-03-24T00:10:50.311Z,94555.00
2024-03-24T00:11:50.284Z,94554.00
2024-03-24T00:12:50.318Z,94555.00
2024-03-24T00:13:50.357Z,94555.00
2024-03-24T00:14:50.416Z,94553.00
2024-03-24T00:15:50.664Z,94554.00
2024-03-24T00:16:50.481Z,94555.00
2024-03-24T00:17:50.504Z,94555.00
2024-03-24T00:18:50.526Z,94553.00
2024-03-24T00:19:50.553Z,94551.00
2024-03-24T00:20:50.617Z,94550.00
2024-03-24T00:21:50.642Z,94549.00
2024-03-24T00:22:50.683Z,94549.00
2024-03-24T00:23:50.707Z,94548.00
2024-03-24T00:24:50.784Z,94550.00
2024-03-24T00:25:50.787Z,94550.00
2024-03-24T00:26:50.839Z,94551.00
2024-03-24T00:27:51.663Z,94553.00
2024-03-24T00:28:50.931Z,94553.00
2024-03-24T00:29:50.961Z,94558.00
2024-03-24T00:30:50.993Z,94558.00
2024-03-24T00:31:51.018Z,94555.00
2024-03-24T00:32:51.064Z,94552.00
2024-03-24T00:33:51.117Z,94553.00
2024-03-24T00:34:51.157Z,94552.00
2024-03-24T00:35:51.194Z,94553.00
2024-03-24T00:36:51.246Z,94554.00
2024-03-24T00:37:51.284Z,94555.00
2024-03-24T00:38:51.340Z,94554.00
2024-03-24T00:39:51.365Z,94552.00
2024-03-24T00:40:51.423Z,94554.00
2024-03-24T00:41:51.464Z,94551.00
2024-03-24T00:42:51.519Z,94548.00
2024-03-24T00:43:51.539Z,94549.00
2024-03-24T00:44:51.581Z,94546.00
2024-03-24T00:45:51.655Z,94547.00
2024-03-24T00:46:51.666Z,94547.00
2024-03-24T00:47:51.716Z,94547.00
2024-03-24T00:48:51.767Z,94547.00
2024-03-24T00:49:51.808Z,94550.00
2024-03-24T00:50:51.843Z,94548.00
2024-03-24T00:51:51.864Z,94548.00
2024-03-24T00:52:51.925Z,94541.00
2024-03-24T00:53:51.935Z,94540.00
2024-03-24T00:54:51.986Z,94541.00
2024-03-24T00:55:52.012Z,94539.00
2024-03-24T00:56:52.071Z,94538.00
2024-03-24T00:57:52.110Z,94535.00
2024-03-24T00:58:52.143Z,94529.00
2024-03-24T00:59:52.193Z,94525.00
2024-03-24T01:00:52.213Z,94526.00
2024-03-24T01:01:52.240Z,94526.00
2024-03-24T01:02:52.294Z,94524.00
2024-03-24T01:03:52.333Z,94524.00
2024-03-24T01:04:52.388Z,94522.00
2024-03-24T01:05:52.432Z,94520.00
2024-03-24T01:06:52.478Z,94518.00
2024-03-24T01:07:52.520Z,94519.00
2024-03-24T01:08:52.558Z,94519.00
2024-03-24T01:09:52.617Z,94517.00
2024-03-24T01:10:52.634Z,94517.00
2024-03-24T01:11:52.668Z,94516.00
2024-03-24T01:12:52.689Z,94515.00
2024-03-24T01:13:52.744Z,94515.00
2024-03-24T01:14:52.781Z,94511.00
2024-03-24T01:15:52.851Z,94509.00
2024-03-24T01:16:52.888Z,94509.00
2024-03-24T01:17:52.904Z,94506.00
2024-03-24T01:18:53.000Z,94505.00
2024-03-24T01:19:53.082Z,94502.00
2024-03-24T01:20:53.194Z,94500.00
2024-03-24T01:21:53.069Z,94497.00
2024-03-24T01:22:53.107Z,94494.00
2024-03-24T01:23:53.176Z,94493.00
2024-03-24T01:24:53.202Z,94491.00
2024-03-24T01:25:53.288Z,94489.00
2024-03-24T01:26:53.297Z,94490.00
2024-03-24T01:27:53.376Z,94487.00
2024-03-24T01:28:53.389Z,94489.00
2024-03-24T01:29:53.417Z,94489.00
2024-03-24T01:30:53.469Z,94490.00
2024-03-24T01:31:53.547Z,94489.00
2024-03-24T01:32:53.538Z,94490.00
2024-03-24T01:33:53.591Z,94487.00
2024-03-24T01:34:53.639Z,94488.00
2024-03-24T01:35:53.712Z,94490.00
2024-03-24T01:36:53.742Z,94488.00
2024-03-24T01:37:53.783Z,94489.00
2024-03-24T01:38:53.797Z,94486.00
2024-03-24T01:39:53.838Z,94486.00
2024-03-24T01:40:53.881Z,94487.00
2024-03-24T01:41:53.921Z,94488.00
2024-03-24T01:42:53.968Z,94486.00
2024-03-24T01:43:53.991Z,94484.00
2024-03-24T01:44:54.040Z,94480.00
2024-03-24T01:45:54.090Z,94479.00
2024-03-24T01:46:54.126Z,94478.00
2024-03-24T01:47:54.172Z,94478.00
2024-03-24T01:48:54.170Z,94479.00
2024-03-24T01:49:54.242Z,94477.00
2024-03-24T01:50:54.296Z,94473.00
2024-03-24T01:51:54.311Z,94475.00
2024-03-24T01:52:54.337Z,94473.00
2024-03-24T01:53:54.368Z,94474.00
2024-03-24T01:54:54.398Z,94473.00
2024-03-24T01:55:54.448Z,94472.00
2024-03-24T01:56:54.477Z,94471.00
2024-03-24T01:57:54.539Z,94471.00
2024-03-24T01:58:54.549Z,94468.00
2024-03-24T01:59:54.598Z,94468.00
2024-03-24T02:00:54.648Z,94464.00
2024-03-24T02:01:54.696Z,94464.00
2024-03-24T02:02:54.700Z,94464.00
2024-03-24T02:03:54.749Z,94465.00
2024-03-24T02:04:54.800Z,94469.00
2024-03-24T02:05:55.201Z,94473.00
2024-03-24T02:06:54.879Z,94471.00
2024-03-24T02:07:54.924Z,94469.00
2024-03-24T02:08:54.960Z,94467.00
2024-03-24T02:09:54.997Z,94466.00
2024-03-24T02:10:55.035Z,94461.00
2024-03-24T02:11:55.083Z,94456.00
2024-03-24T02:12:55.101Z,94455.00
2024-03-24T02:13:55.173Z,94451.00
2024-03-24T02:14:55.172Z,94446.00
2024-03-24T02:15:55.696Z,94445.00
2024-03-24T02:16:55.287Z,94446.00
2024-03-24T02:18:00.412Z,94440.00
2024-03-24T02:18:56.322Z,94438.00
2024-03-24T02:19:55.299Z,94439.00
2024-03-24T02:20:55.345Z,94441.00
2024-03-24T02:21:55.441Z,94441.00
2024-03-24T02:22:55.293Z,94442.00
2024-03-24T02:23:55.299Z,94442.00
2024-03-24T02:24:55.284Z,94443.00
2024-03-24T02:25:55.272Z,94445.00
2024-03-24T02:26:55.286Z,94443.00
2024-03-24T02:27:55.269Z,94438.00
2024-03-24T02:28:55.269Z,94434.00
2024-03-24T02:29:55.276Z,94424.00
2024-03-24T02:30:55.314Z,94413.00
2024-03-24T02:31:55.375Z,94407.00
2024-03-24T02:32:55.403Z,94404.00
2024-03-24T02:33:55.455Z,94405.00
2024-03-24T02:34:55.510Z,94407.00
2024-03-24T02:35:55.572Z,94408.00
2024-03-24T02:36:55.618Z,94408.00
2024-03-24T02:37:55.652Z,94409.00
2024-03-24T02:38:55.686Z,94410.00
2024-03-24T02:39:55.720Z,94407.00
2024-03-24T02:40:55.777Z,94403.00
2024-03-24T02:41:55.837Z,94401.00
2024-03-24T02:42:55.853Z,94403.00
2024-03-24T02:43:55.887Z,94404.00
2024-03-24T02:44:55.941Z,94401.00
2024-03-24T02:45:55.994Z,94399.00
2024-03-24T02:46:56.041Z,94398.00
2024-03-24T02:47:56.057Z,94393.00
2024-03-24T02:48:56.126Z,94392.00
2024-03-24T02:49:56.177Z,94390.00
2024-03-24T02:50:56.200Z,94385.00
2024-03-24T02:51:56.240Z,94387.00
2024-03-24T02:52:56.278Z,94385.00
2024-03-24T02:53:56.325Z,94386.00
2024-03-24T02:54:56.380Z,94387.00
2024-03-24T02:55:56.422Z,94390.00
2024-03-24T02:56:56.450Z,94391.00
2024-03-24T02:57:56.517Z,94389.00
2024-03-24T02:58:56.567Z,94388.00
2024-03-24T02:59:56.623Z,94387.00
2024-03-24T03:00:59.226Z,94385.00
2024-03-24T03:01:57.250Z,94386.00
2024-03-24T03:02:56.855Z,94384.00
2024-03-24T03:03:56.880Z,94381.00
2024-03-24T03:04:56.900Z,94379.00
2024-03-24T03:05:56.906Z,94380.00
2024-03-24T03:06:56.930Z,94377.00
2024-03-24T03:07:57.711Z,94374.00
2024-03-24T03:08:56.996Z,94373.00
2024-03-24T03:09:57.778Z,94372.00
2024-03-24T03:10:56.926Z,94373.00
2024-03-24T03:11:56.911Z,94373.00
2024-03-24T03:12:56.904Z,94374.00
2024-03-24T03:13:57.744Z,94373.00
2024-03-24T03:14:56.885Z,94374.00
2024-03-24T03:15:56.846Z,94372.00
2024-03-24T03:16:56.828Z,94370.00
2024-03-24T03:17:56.852Z,94366.00
2024-03-24T03:18:56.836Z,94361.00
2024-03-24T03:19:57.814Z,94357.00
2024-03-24T03:20:57.813Z,94354.00
2024-03-24T03:21:56.799Z,94353.00
2024-03-24T03:22:57.707Z,94351.00
2024-03-24T03:23:56.772Z,94351.00
2024-03-24T03:24:56.767Z,94351.00
2024-03-24T03:25:56.722Z,94349.00
2024-03-24T03:26:56.746Z,94347.00
2024-03-24T03:27:56.716Z,94350.00
2024-03-24T03:28:56.713Z,94352.00
2024-03-24T03:29:56.687Z,94349.00
2024-03-24T03:30:56.688Z,94350.00
2024-03-24T03:31:56.676Z,94348.00
2024-03-24T03:32:56.641Z,94347.00
2024-03-24T03:33:56.605Z,94347.00
2024-03-24T03:34:56.612Z,94347.00
2024-03-24T03:35:56.588Z,94347.00
2024-03-24T03:36:57.600Z,94347.00
2024-03-24T03:37:56.598Z,94343.00
2024-03-24T03:38:56.577Z,94338.00
2024-03-24T03:39:56.547Z,94335.00
2024-03-24T03:40:56.558Z,94331.00
2024-03-24T03:41:56.561Z,94325.00
2024-03-24T03:42:56.534Z,94322.00
2024-03-24T03:43:56.515Z,94323.00
2024-03-24T03:44:57.552Z,94323.00
2024-03-24T03:45:56.489Z,94323.00
2024-03-24T03:46:56.505Z,94322.00
2024-03-24T03:47:56.476Z,94323.00
2024-03-24T03:48:57.463Z,94325.00
2024-03-24T03:49:57.438Z,94325.00
2024-03-24T03:50:56.456Z,94325.00
2024-03-24T03:51:56.446Z,94326.00
2024-03-24T03:52:56.438Z,94323.00
2024-03-24T03:53:56.406Z,94319.00
2024-03-24T03:54:56.430Z,94317.00
2024-03-24T03:55:56.403Z,94318.00
2024-03-24T03:56:56.399Z,94316.00
2024-03-24T03:57:56.398Z,94318.00
2024-03-24T03:58:56.376Z,94314.00
2024-03-24T03:59:56.382Z,94319.00
2024-03-24T04:00:57.370Z,94318.00
2024-03-24T04:01:56.371Z,94321.00
2024-03-24T04:02:56.336Z,94320.00
2024-03-24T04:03:57.236Z,94319.00
2024-03-24T04:04:56.313Z,94320.00
2024-03-24T04:05:57.311Z,94320.00
2024-03-24T04:06:57.300Z,94325.00
2024-03-24T04:07:56.265Z,94323.00
2024-03-24T04:08:56.266Z,94325.00
2024-03-24T04:09:56.266Z,94325.00
2024-03-24T04:10:56.262Z,94322.00
2024-03-24T04:11:56.262Z,94321.00
2024-03-24T04:12:56.271Z,94321.00
2024-03-24T04:13:56.204Z,94319.00
2024-03-24T04:14:56.236Z,94317.00
2024-03-24T04:15:56.193Z,94318.00
2024-03-24T04:16:56.832Z,94315.00
2024-03-24T04:17:56.744Z,94312.00
2024-03-24T04:18:56.155Z,94311.00
2024-03-24T04:19:56.197Z,94313.00
2024-03-24T04:20:56.120Z,94314.00
2024-03-24T04:21:56.261Z,94315.00
2024-03-24T04:22:56.103Z,94314.00
2024-03-24T04:23:56.084Z,94313.00
2024-03-24T04:24:56.075Z,94311.00
2024-03-24T04:25:56.039Z,94309.00
2024-03-24T04:27:05.529Z,94312.00
2024-03-24T04:28:03.232Z,94313.00
2024-03-24T04:29:03.240Z,94315.00
2024-03-24T04:30:03.250Z,94318.00
2024-03-24T04:31:10.590Z,94322.00
2024-03-24T04:32:10.437Z,94323.00
2024-03-24T04:33:11.455Z,94324.00
2024-03-24T04:34:10.466Z,94324.00
2024-03-24T04:35:10.525Z,94323.00
2024-03-24T04:36:10.475Z,94321.00
2024-03-24T04:37:10.511Z,94320.00
2024-03-24T04:38:10.568Z,94319.00
2024-03-24T04:39:10.479Z,94317.00
2024-03-24T04:40:10.505Z,94314.00
2024-03-24T04:41:11.305Z,94314.00
2024-03-24T04:42:10.538Z,94311.00
2024-03-24T04:43:10.470Z,94311.00
2024-03-24T04:44:10.497Z,94307.00
2024-03-24T04:45:10.485Z,94306.00
2024-03-24T04:46:10.538Z,94305.00
2024-03-24T04:47:10.607Z,94301.00
2024-03-24T04:48:10.647Z,94303.00
2024-03-24T04:49:11.717Z,94303.00
2024-03-24T04:50:10.720Z,94306.00
2024-03-24T04:51:10.805Z,94308.00
2024-03-24T04:52:10.862Z,94309.00
2024-03-24T04:53:10.912Z,94311.00
2024-03-24T04:54:10.934Z,94310.00
2024-03-24T04:55:10.997Z,94313.00
2024-03-24T04:56:11.040Z,94312.00
2024-03-24T04:57:11.108Z,94313.00
2024-03-24T04:58:11.160Z,94310.00
2024-03-24T04:59:11.205Z,94308.00
2024-03-24T05:00:11.271Z,94309.00
2024-03-24T05:01:12.351Z,94311.00
2024-03-24T05:02:11.363Z,94310.00
2024-03-24T05:03:11.408Z,94309.00
2024-03-24T05:04:11.454Z,94303.00
2024-03-24T05:05:11.510Z,94303.00
2024-03-24T05:06:11.551Z,94299.00
2024-03-24T05:07:11.622Z,94300.00
2024-03-24T05:08:11.655Z,94301.00
2024-03-24T05:09:11.713Z,94302.00
2024-03-24T05:10:11.792Z,94306.00
2024-03-24T05:11:11.788Z,94310.00
2024-03-24T05:12:14.610Z,94309.00
2024-03-24T05:13:12.863Z,94311.00
2024-03-24T05:14:11.845Z,94307.00
2024-03-24T05:15:11.856Z,94307.00
2024-03-24T05:16:12.608Z,94304.00
2024-03-24T05:17:11.871Z,94305.00
2024-03-24T05:18:11.851Z,94306.00
2024-03-24T05:19:11.868Z,94308.00
2024-03-24T05:20:11.842Z,94311.00
2024-03-24T05:21:11.912Z,94314.00
2024-03-24T05:22:11.879Z,94316.00
2024-03-24T05:23:11.874Z,94319.00
2024-03-24T05:24:12.578Z,94320.00
2024-03-24T05:25:11.883Z,94321.00
2024-03-24T05:26:11.890Z,94316.00
2024-03-24T05:27:11.883Z,94317.00
2024-03-24T05:28:11.869Z,94320.00
2024-03-24T05:29:11.877Z,94323.00
2024-03-24T05:30:11.911Z,94322.00
2024-03-24T05:31:11.973Z,94319.00
2024-03-24T05:32:12.005Z,94316.00
2024-03-24T05:33:12.060Z,94309.00
2024-03-24T05:34:12.106Z,94301.00
2024-03-24T05:35:12.173Z,94299.00
2024-03-24T05:36:12.216Z,94299.00
2024-03-24T05:37:12.279Z,94303.00
2024-03-24T05:38:12.318Z,94303.00
2024-03-24T05:39:12.344Z,94304.00
2024-03-24T05:40:12.396Z,94308.00
2024-03-24T05:41:12.447Z,94309.00
2024-03-24T05:42:12.515Z,94312.00
2024-03-24T05:43:13.115Z,94316.00
2024-03-24T05:44:12.639Z,94319.00
2024-03-24T05:45:12.654Z,94318.00
2024-03-24T05:46:12.737Z,94320.00
2024-03-24T05:47:12.753Z,94320.00
2024-03-24T05:48:13.767Z,94320.00
2024-03-24T05:49:12.751Z,94318.00
2024-03-24T05:50:12.768Z,94319.00
2024-03-24T05:51:12.764Z,94321.00
2024-03-24T05:52:12.752Z,94321.00
2024-03-24T05:53:12.786Z,94322.00
2024-03-24T05:54:12.800Z,94321.00
2024-03-24T05:55:12.824Z,94319.00
2024-03-24T05:56:12.819Z,94316.00
2024-03-24T05:57:12.827Z,94315.00
2024-03-24T05:58:12.821Z,94314.00
2024-03-24T05:59:12.814Z,94316.00
2024-03-24T06:00:12.846Z,94319.00
2024-03-24T06:01:12.839Z,94320.00
2024-03-24T06:02:12.905Z,94325.00
2024-03-24T06:03:12.842Z,94326.00
2024-03-24T06:04:12.860Z,94328.00
2024-03-24T06:05:12.896Z,94325.00
2024-03-24T06:06:12.873Z,94327.00
2024-03-24T06:07:12.900Z,94329.00
2024-03-24T06:08:12.905Z,94330.00
2024-03-24T06:09:12.910Z,94332.00
2024-03-24T06:10:12.927Z,94333.00
2024-03-24T06:11:12.926Z,94329.00
2024-03-24T06:12:12.939Z,94334.00
2024-03-24T06:13:12.954Z,94334.00
2024-03-24T06:14:12.983Z,94341.00
2024-03-24T06:15:12.952Z,94337.00
2024-03-24T06:16:12.950Z,94339.00
2024-03-24T06:17:12.965Z,94337.00
2024-03-24T06:18:12.966Z,94335.00
2024-03-24T06:19:14.700Z,94339.00
2024-03-24T06:20:13.053Z,94342.00
2024-03-24T06:21:13.102Z,94343.00
2024-03-24T06:22:13.590Z,94345.00
2024-03-24T06:23:13.183Z,94342.00
2024-03-24T06:24:13.220Z,94342.00
2024-03-24T06:25:14.578Z,94344.00
2024-03-24T06:26:13.282Z,94346.00
2024-03-24T06:27:13.279Z,94347.00
2024-03-24T06:28:13.295Z,94349.00
2024-03-24T06:29:13.290Z,94349.00
2024-03-24T06:30:13.295Z,94350.00
2024-03-24T06:31:13.263Z,94348.00
2024-03-24T06:32:13.619Z,94350.00
2024-03-24T06:33:13.286Z,94348.00
2024-03-24T06:34:13.300Z,94347.00
2024-03-24T06:35:18.115Z,94348.00
2024-03-24T06:36:13.298Z,94353.00
2024-03-24T06:37:15.101Z,94356.00
2024-03-24T06:38:13.286Z,94356.00
2024-03-24T06:39:13.290Z,94355.00
2024-03-24T06:40:13.284Z,94358.00
2024-03-24T06:41:14.462Z,94360.00
2024-03-24T06:42:13.325Z,94363.00
2024-03-24T06:43:13.293Z,94367.00
2024-03-24T06:44:13.303Z,94368.00
2024-03-24T06:45:13.294Z,94369.00
2024-03-24T06:46:13.279Z,94369.00
2024-03-24T06:47:13.309Z,94369.00
2024-03-24T06:48:13.336Z,94368.00
2024-03-24T06:49:13.386Z,94368.00
2024-03-24T06:50:13.467Z,94368.00
2024-03-24T06:51:13.532Z,94369.00
2024-03-24T06:52:13.561Z,94368.00
2024-03-24T06:53:13.628Z,94367.00
2024-03-24T06:54:13.659Z,94361.00
2024-03-24T06:55:13.723Z,94359.00
2024-03-24T06:56:13.782Z,94359.00
2024-03-24T06:57:14.179Z,94364.00
2024-03-24T06:58:13.898Z,94366.00
2024-03-24T06:59:13.942Z,94367.00
2024-03-24T07:00:13.982Z,94369.00
2024-03-24T07:01:14.055Z,94366.00
2024-03-24T07:02:14.106Z,94370.00
2024-03-24T07:03:14.167Z,94373.00
2024-03-24T07:04:14.197Z,94371.00
2024-03-24T07:05:14.262Z,94373.00
2024-03-24T07:06:14.290Z,94372.00
2024-03-24T07:07:14.373Z,94373.00
2024-03-24T07:08:14.409Z,94373.00
2024-03-24T07:09:14.451Z,94373.00
2024-03-24T07:10:14.504Z,94376.00
2024-03-24T07:11:14.537Z,94374.00
2024-03-24T07:12:14.623Z,94375.00
2024-03-24T07:13:14.654Z,94377.00
2024-03-24T07:14:14.688Z,94376.00
2024-03-24T07:15:14.755Z,94377.00
2024-03-24T07:16:14.780Z,94379.00
2024-03-24T07:17:14.865Z,94380.00
2024-03-24T07:18:14.907Z,94380.00
2024-03-24T07:19:14.944Z,94377.00
2024-03-24T07:20:14.970Z,94377.00
2024-03-24T07:21:15.026Z,94375.00
2024-03-24T07:22:15.132Z,94374.00
2024-03-24T07:23:15.134Z,94375.00
2024-03-24T07:24:15.174Z,94374.00
2024-03-24T07:25:15.225Z,94373.00
2024-03-24T07:26:15.271Z,94373.00
2024-03-24T07:27:15.635Z,94375.00
2024-03-24T07:28:15.373Z,94375.00
2024-03-24T07:29:15.400Z,94379.00
2024-03-24T07:30:15.448Z,94380.00
2024-03-24T07:31:15.490Z,94382.00
2024-03-24T07:32:15.535Z,94387.00
2024-03-24T07:33:15.604Z,94387.00
2024-03-24T07:34:16.691Z,94390.00
2024-03-24T07:35:15.695Z,94393.00
2024-03-24T07:36:15.754Z,94395.00
2024-03-24T07:37:16.146Z,94396.00
2024-03-24T07:38:15.850Z,94395.00
2024-03-24T07:39:15.898Z,94396.00
2024-03-24T07:40:15.941Z,94391.00
2024-03-24T07:41:15.994Z,94392.00
2024-03-24T07:42:16.047Z,94389.00
2024-03-24T07:43:16.078Z,94390.00
2024-03-24T07:44:16.150Z,94391.00
2024-03-24T07:45:17.133Z,94393.00
2024-03-24T07:46:16.228Z,94390.00
2024-03-24T07:47:16.289Z,94390.00
2024-03-24T07:48:17.267Z,94383.00
2024-03-24T07:49:16.287Z,94377.00
2024-03-24T07:50:16.248Z,94370.00
2024-03-24T07:51:16.259Z,94368.00
2024-03-24T07:52:16.631Z,94365.00
2024-03-24T07:53:16.265Z,94363.00
2024-03-24T07:54:16.287Z,94362.00
2024-03-24T07:55:16.285Z,94360.00
2024-03-24T07:56:16.293Z,94362.00
2024-03-24T07:57:16.295Z,94366.00
2024-03-24T07:58:16.307Z,94368.00
2024-03-24T07:59:16.311Z,94368.00
2024-03-24T08:00:16.337Z,94369.00
2024-03-24T08:01:16.397Z,94371.00
2024-03-24T08:02:16.640Z,94370.00
2024-03-24T08:03:16.481Z,94370.00
2024-03-24T08:04:16.534Z,94371.00
2024-03-24T08:05:17.132Z,94372.00
2024-03-24T08:06:16.632Z,94373.00
2024-03-24T08:07:16.689Z,94374.00
2024-03-24T08:08:16.713Z,94375.00
2024-03-24T08:09:16.772Z,94373.00
2024-03-24T08:10:16.806Z,94374.00
2024-03-24T08:11:16.847Z,94372.00
2024-03-24T08:12:16.886Z,94371.00
2024-03-24T08:13:16.952Z,94371.00
2024-03-24T08:14:16.942Z,94370.00
2024-03-24T08:15:16.956Z,94370.00
2024-03-24T08:16:16.932Z,94367.00
2024-03-24T08:17:16.949Z,94367.00
2024-03-24T08:18:16.953Z,94365.00
2024-03-24T08:19:16.950Z,94366.00
2024-03-24T08:20:16.995Z,94367.00
2024-03-24T08:21:16.950Z,94368.00
2024-03-24T08:22:17.145Z,94367.00
2024-03-24T08:23:16.948Z,94368.00
2024-03-24T08:24:16.950Z,94366.00
2024-03-24T08:25:16.960Z,94367.00
2024-03-24T08:26:16.987Z,94366.00
2024-03-24T08:27:17.005Z,94364.00
2024-03-24T08:28:17.046Z,94367.00
2024-03-24T08:29:17.103Z,94367.00
2024-03-24T08:30:17.230Z,94365.00
2024-03-24T08:31:17.192Z,94367.00
2024-03-24T08:32:17.669Z,94366.00
2024-03-24T08:33:17.295Z,94367.00
2024-03-24T08:34:17.328Z,94368.00
2024-03-24T08:35:17.399Z,94368.00
2024-03-24T08:36:17.425Z,94371.00
2024-03-24T08:37:17.463Z,94370.00
2024-03-24T08:38:17.502Z,94371.00
2024-03-24T08:39:17.549Z,94371.00
2024-03-24T08:40:17.639Z,94374.00
2024-03-24T08:41:17.676Z,94374.00
2024-03-24T08:42:17.700Z,94377.00
2024-03-24T08:43:17.742Z,94378.00
2024-03-24T08:44:17.779Z,94380.00
2024-03-24T08:45:17.829Z,94383.00
2024-03-24T08:46:17.883Z,94386.00
2024-03-24T08:47:17.969Z,94392.00
2024-03-24T08:48:20.344Z,94394.00
2024-03-24T08:49:18.982Z,94394.00
2024-03-24T08:50:18.005Z,94399.00
2024-03-24T08:51:17.974Z,94399.00
2024-03-24T08:52:18.152Z,94400.00
2024-03-24T08:53:17.987Z,94402.00
2024-03-24T08:54:17.981Z,94403.00
2024-03-24T08:55:18.715Z,94404.00
2024-03-24T08:56:18.013Z,94403.00
2024-03-24T08:57:18.019Z,94405.00
2024-03-24T08:58:18.014Z,94404.00
2024-03-24T08:59:17.983Z,94405.00
2024-03-24T09:00:18.014Z,94406.00
2024-03-24T09:01:18.034Z,94410.00
2024-03-24T09:02:18.098Z,94410.00
2024-03-24T09:03:20.662Z,94412.00
2024-03-24T09:04:18.309Z,94412.00
2024-03-24T09:05:18.333Z,94411.00
2024-03-24T09:06:18.379Z,94411.00
2024-03-24T09:07:18.422Z,94415.00
2024-03-24T09:08:18.498Z,94418.00
2024-03-24T09:09:21.563Z,94421.00
2024-03-24T09:10:18.528Z,94420.00
2024-03-24T09:11:18.516Z,94418.00
2024-03-24T09:12:18.672Z,94418.00
2024-03-24T09:13:18.502Z,94419.00
2024-03-24T09:14:18.532Z,94420.00
2024-03-24T09:15:18.537Z,94421.00
2024-03-24T09:16:18.545Z,94423.00
2024-03-24T09:17:18.530Z,94423.00
2024-03-24T09:18:18.560Z,94426.00
2024-03-24T09:19:18.536Z,94426.00
2024-03-24T09:20:18.537Z,94425.00
2024-03-24T09:21:18.514Z,94424.00
2024-03-24T09:22:18.678Z,94425.00
2024-03-24T09:23:18.544Z,94424.00
2024-03-24T09:24:18.533Z,94424.00
2024-03-24T09:25:18.530Z,94423.00
2024-03-24T09:26:18.554Z,94422.00
2024-03-24T09:27:18.556Z,94423.00
2024-03-24T09:28:18.580Z,94424.00
2024-03-24T09:29:18.613Z,94426.00
2024-03-24T09:30:18.694Z,94429.00
2024-03-24T09:31:18.717Z,94427.00
2024-03-24T09:32:19.171Z,94426.00
2024-03-24T09:33:20.810Z,94425.00
2024-03-24T09:34:18.886Z,94425.00
2024-03-24T09:35:18.938Z,94425.00
2024-03-24T09:36:19.010Z,94424.00
2024-03-24T09:37:19.035Z,94426.00
2024-03-24T09:38:19.035Z,94428.00
2024-03-24T09:39:19.073Z,94432.00
2024-03-24T09:40:19.068Z,94433.00
2024-03-24T09:41:19.063Z,94436.00
2024-03-24T09:42:19.698Z,94437.00
2024-03-24T09:43:19.056Z,94439.00
2024-03-24T09:44:19.059Z,94443.00
2024-03-24T09:45:19.060Z,94443.00
2024-03-24T09:46:19.077Z,94443.00
2024-03-24T09:47:19.062Z,94442.00
2024-03-24T09:48:19.084Z,94441.00
2024-03-24T09:49:19.081Z,94442.00
2024-03-24T09:50:19.101Z,94443.00
2024-03-24T09:51:19.149Z,94444.00
2024-03-24T09:52:19.172Z,94448.00
2024-03-24T09:53:19.228Z,94450.00
2024-03-24T09:54:19.275Z,94449.00
2024-03-24T09:55:19.306Z,94448.00
2024-03-24T09:56:22.188Z,94449.00
2024-03-24T09:57:19.369Z,94444.00
2024-03-24T09:58:19.354Z,94441.00
2024-03-24T09:59:19.367Z,94436.00
2024-03-24T10:00:19.379Z,94434.00
2024-03-24T10:01:19.374Z,94433.00
2024-03-24T10:02:19.685Z,94435.00
2024-03-24T10:03:19.400Z,94434.00
2024-03-24T10:04:19.429Z,94435.00
2024-03-24T10:05:19.417Z,94436.00
2024-03-24T10:06:19.431Z,94433.00
2024-03-24T10:07:19.705Z,94433.00
2024-03-24T10:08:19.434Z,94431.00
2024-03-24T10:09:19.461Z,94430.00
2024-03-24T10:10:19.481Z,94432.00
2024-03-24T10:11:19.481Z,94429.00
2024-03-24T10:12:19.498Z,94426.00
2024-03-24T10:13:19.483Z,94426.00
2024-03-24T10:14:19.508Z,94424.00
2024-03-24T10:15:24.184Z,94419.00
2024-03-24T10:16:19.515Z,94418.00
2024-03-24T10:17:21.739Z,94416.00
2024-03-24T10:18:19.525Z,94417.00
2024-03-24T10:19:19.522Z,94418.00
2024-03-24T10:20:19.541Z,94417.00
2024-03-24T10:21:19.556Z,94418.00
2024-03-24T10:22:19.693Z,94414.00
2024-03-24T10:23:20.549Z,94409.00
2024-03-24T10:24:23.048Z,94404.00
2024-03-24T10:25:19.602Z,94404.00
2024-03-24T10:26:19.588Z,94410.00
2024-03-24T10:27:19.598Z,94414.00
2024-03-24T10:28:19.608Z,94413.00
2024-03-24T10:29:19.609Z,94416.00
2024-03-24T10:30:19.617Z,94414.00
2024-03-24T10:31:19.642Z,94412.00
2024-03-24T10:32:27.751Z,94412.00
2024-03-24T10:33:20.648Z,94410.00
2024-03-24T10:34:19.639Z,94407.00
2024-03-24T10:35:19.666Z,94405.00
2024-03-24T10:36:19.677Z,94405.00
2024-03-24T10:37:19.732Z,94403.00
2024-03-24T10:38:19.669Z,94398.00
2024-03-24T10:39:19.688Z,94394.00
2024-03-24T10:40:19.686Z,94390.00
2024-03-24T10:41:19.678Z,94390.00
2024-03-24T10:42:19.700Z,94395.00
2024-03-24T10:43:19.712Z,94393.00
2024-03-24T10:44:19.729Z,94396.00
2024-03-24T10:45:19.752Z,94395.00
2024-03-24T10:46:23.304Z,94395.00
2024-03-24T10:47:19.830Z,94395.00
2024-03-24T10:48:19.818Z,94393.00
2024-03-24T10:49:19.806Z,94390.00
2024-03-24T10:50:19.835Z,94386.00
2024-03-24T10:51:19.823Z,94388.00
2024-03-24T10:52:20.198Z,94388.00
2024-03-24T10:53:19.814Z,94387.00
2024-03-24T10:54:19.815Z,94384.00
2024-03-24T10:55:22.903Z,94383.00
2024-03-24T10:56:19.796Z,94384.00
2024-03-24T10:57:20.193Z,94381.00
2024-03-24T10:58:19.812Z,94377.00
2024-03-24T10:59:19.812Z,94373.00
2024-03-24T11:00:19.814Z,94372.00
2024-03-24T11:01:19.805Z,94374.00
2024-03-24T11:02:20.220Z,94377.00
2024-03-24T11:03:19.807Z,94379.00
2024-03-24T11:04:19.784Z,94377.00
2024-03-24T11:05:21.359Z,94371.00
2024-03-24T11:06:19.777Z,94366.00
2024-03-24T11:07:20.218Z,94366.00
2024-03-24T11:08:19.789Z,94367.00
2024-03-24T11:09:19.789Z,94370.00
2024-03-24T11:10:19.755Z,94366.00
2024-03-24T11:11:19.774Z,94368.00
2024-03-24T11:12:21.425Z,94366.00
2024-03-24T11:13:19.752Z,94366.00
2024-03-24T11:14:19.764Z,94369.00
2024-03-24T11:15:19.760Z,94368.00
2024-03-24T11:16:19.758Z,94370.00
2024-03-24T11:17:20.221Z,94368.00
2024-03-24T11:18:19.746Z,94366.00
2024-03-24T11:19:19.750Z,94367.00
2024-03-24T11:20:19.749Z,94361.00
2024-03-24T11:21:19.730Z,94355.00
2024-03-24T11:22:19.757Z,94353.00
2024-03-24T11:23:19.811Z,94360.00
2024-03-24T11:24:19.849Z,94357.00
2024-03-24T11:25:19.872Z,94355.00
2024-03-24T11:26:19.931Z,94355.00
2024-03-24T11:27:19.951Z,94352.00
2024-03-24T11:28:20.022Z,94359.00
2024-03-24T11:29:20.043Z,94357.00
2024-03-24T11:30:20.077Z,94357.00
2024-03-24T11:31:20.197Z,94357.00
2024-03-24T11:32:20.209Z,94360.00
2024-03-24T11:33:20.188Z,94358.00
2024-03-24T11:34:20.282Z,94350.00
2024-03-24T11:35:20.282Z,94350.00
2024-03-24T11:36:20.317Z,94349.00
2024-03-24T11:37:20.706Z,94349.00
2024-03-24T11:38:20.405Z,94345.00
2024-03-24T11:39:20.435Z,94347.00
2024-03-24T11:40:20.513Z,94349.00
2024-03-24T11:41:20.538Z,94351.00
2024-03-24T11:42:20.585Z,94350.00
2024-03-24T11:43:20.613Z,94348.00
2024-03-24T11:44:20.672Z,94350.00
2024-03-24T11:45:20.712Z,94348.00